Time;durP1;ratioP1;P1;durP2;ratioP2;P2;SDS_P1;SDS_P2;PMS_P1;PMS_P2;Temp;Humidity;BMP_temperature;BMP_pressure;BME280_temperature;BME280_humidity;BME280_pressure;Samples;Min_cycle;Max_cycle;Signal;HPM_P1;HPM_P2
2023/03/29 00:00:13;;;;;;;3.63;3.42;;;;;;;;;;4970377;28;20089;-63
2023/03/29 00:02:40;;;;;;;4.18;3.90;;;;;;;;;;4970570;28;20066;-61
2023/03/29 00:05:07;;;;;;;4.30;3.97;;;;;;;;;;4971432;28;20027;-61
2023/03/29 00:07:32;;;;;;;4.70;4.30;;;;;;;;;;4972450;28;20117;-63
2023/03/29 00:09:59;;;;;;;5.13;4.63;;;;;;;;;;4970739;28;20109;-62
2023/03/29 00:12:25;;;;;;;4.28;3.97;;;;;;;;;;4971149;28;20048;-63
2023/03/29 00:14:50;;;;;;;4.38;4.00;;;;;;;;;;4970108;28;20038;-63
2023/03/29 00:17:16;;;;;;;5.07;4.53;;;;;;;;;;4968577;28;20026;-63
2023/03/29 00:19:43;;;;;;;4.30;3.92;;;;;;;;;;4976252;28;20471;-61
2023/03/29 00:22:09;;;;;;;4.80;4.28;;;;;;;;;;4970184;28;20138;-62
2023/03/29 00:24:35;;;;;;;4.35;4.05;;;;;;;;;;4969415;28;20666;-62
2023/03/29 00:27:00;;;;;;;5.72;3.92;;;;;;;;;;4966235;28;20400;-62
2023/03/29 00:29:26;;;;;;;3.97;3.78;;;;;;;;;;4967878;28;20039;-62
2023/03/29 00:31:53;;;;;;;5.15;4.63;;;;;;;;;;4969500;28;20402;-62
2023/03/29 00:34:22;;;;;;;4.00;3.70;;;;;;;;;;4968310;28;20049;-63
2023/03/29 00:36:51;;;;;;;4.80;4.40;;;;;;;;;;4968490;28;20458;-63
2023/03/29 00:39:19;;;;;;;4.68;4.30;;;;;;;;;;4968119;28;20041;-63
2023/03/29 00:41:46;;;;;;;3.65;3.40;;;;;;;;;;4968453;28;20677;-61
2023/03/29 00:44:49;;;;;;;4.25;3.83;;;;;;;;;;4969865;28;20521;-63
2023/03/29 00:47:17;;;;;;;3.83;3.63;;;;;;;;;;4966779;28;20038;-62
2023/03/29 00:49:44;;;;;;;4.78;4.30;;;;;;;;;;4968470;28;20039;-62
2023/03/29 00:52:14;;;;;;;4.38;4.07;;;;;;;;;;4969145;28;20035;-61
2023/03/29 00:54:43;;;;;;;3.88;3.67;;;;;;;;;;4973949;28;20557;-61
2023/03/29 00:57:12;;;;;;;3.50;3.30;;;;;;;;;;4971470;28;20068;-62
2023/03/29 00:59:40;;;;;;;4.05;3.75;;;;;;;;;;4966773;28;20108;-62
2023/03/29 01:02:07;;;;;;;4.05;3.75;;;;;;;;;;4969183;28;20105;-62
2023/03/29 01:04:46;;;;;;;7.90;4.70;;;;;;;;;;4969085;28;20034;-60
2023/03/29 01:07:27;;;;;;;4.40;4.00;;;;;;;;;;4970136;28;20042;-62
2023/03/29 01:10:22;;;;;;;5.97;4.55;;;;;;;;;;4970725;28;20033;-63
2023/03/29 01:12:55;;;;;;;8.70;4.22;;;;;;;;;;4959246;28;20051;-62
2023/03/29 01:15:26;;;;;;;5.00;4.55;;;;;;;;;;4963582;28;20043;-62
2023/03/29 01:17:54;;;;;;;4.35;4.05;;;;;;;;;;4972836;28;20045;-59
2023/03/29 01:20:26;;;;;;;4.65;4.25;;;;;;;;;;4966495;28;20049;-62
2023/03/29 01:23:20;;;;;;;4.30;4.00;;;;;;;;;;4970016;28;20038;-63
2023/03/29 01:26:16;;;;;;;4.72;4.32;;;;;;;;;;4966782;28;20042;-63
2023/03/29 01:29:02;;;;;;;5.60;4.25;;;;;;;;;;4965771;28;20046;-63
2023/03/29 01:31:35;;;;;;;4.13;3.72;;;;;;;;;;4970108;28;20044;-64
2023/03/29 01:34:08;;;;;;;4.78;4.38;;;;;;;;;;4979020;28;20577;-62
2023/03/29 01:36:48;;;;;;;4.40;4.05;;;;;;;;;;4974710;28;20082;-61
2023/03/29 01:39:14;;;;;;;4.15;3.85;;;;;;;;;;4984999;28;20027;-62
2023/03/29 01:42:01;;;;;;;5.05;4.38;;;;;;;;;;4966843;28;20509;-63
2023/03/29 01:44:51;;;;;;;3.58;3.38;;;;;;;;;;4967359;28;20038;-61
2023/03/29 01:47:36;;;;;;;4.97;4.47;;;;;;;;;;4969061;28;20031;-62
2023/03/29 01:50:12;;;;;;;4.32;3.92;;;;;;;;;;4967617;28;20053;-62
2023/03/29 01:52:44;;;;;;;3.60;3.40;;;;;;;;;;4985852;28;20117;-62
2023/03/29 01:55:21;;;;;;;5.28;3.60;;;;;;;;;;4983544;28;20047;-61
2023/03/29 01:57:48;;;;;;;4.00;3.70;;;;;;;;;;4981418;28;20034;-60
2023/03/29 02:00:23;;;;;;;3.92;3.63;;;;;;;;;;4969495;28;20443;-62
2023/03/29 02:02:51;;;;;;;3.95;3.65;;;;;;;;;;4968912;28;20039;-62
2023/03/29 02:05:19;;;;;;;5.25;3.97;;;;;;;;;;4970209;28;20033;-64
2023/03/29 02:07:47;;;;;;;3.50;3.22;;;;;;;;;;4971362;28;20406;-63
2023/03/29 02:10:15;;;;;;;5.07;3.10;;;;;;;;;;4967066;28;20157;-63
2023/03/29 02:12:41;;;;;;;4.25;3.90;;;;;;;;;;4968346;28;20046;-62
2023/03/29 02:15:12;;;;;;;3.85;3.55;;;;;;;;;;4968679;28;20057;-62
2023/03/29 02:17:37;;;;;;;4.32;3.90;;;;;;;;;;4969763;28;20410;-62
2023/03/29 02:20:13;;;;;;;4.90;3.50;;;;;;;;;;4964814;28;20031;-62
2023/03/29 02:23:14;;;;;;;6.05;4.07;;;;;;;;;;4966550;28;20039;-62
2023/03/29 02:25:42;;;;;;;4.38;3.97;;;;;;;;;;4967030;28;20035;-61
2023/03/29 02:28:08;;;;;;;5.53;5.03;;;;;;;;;;4961437;28;20047;-63
2023/03/29 02:30:48;;;;;;;4.88;3.90;;;;;;;;;;4962862;28;20069;-62
2023/03/29 02:33:20;;;;;;;4.40;4.00;;;;;;;;;;4967732;28;20034;-62
2023/03/29 02:36:00;;;;;;;4.55;4.25;;;;;;;;;;4966331;28;20031;-62
2023/03/29 02:38:27;;;;;;;4.10;3.72;;;;;;;;;;4967914;28;20070;-62
2023/03/29 02:40:55;;;;;;;3.90;3.70;;;;;;;;;;4967851;28;20031;-62
2023/03/29 02:43:23;;;;;;;6.07;4.63;;;;;;;;;;4967062;28;20046;-62
2023/03/29 02:45:51;;;;;;;5.00;4.60;;;;;;;;;;4967063;28;20027;-62
2023/03/29 02:48:22;;;;;;;4.50;4.20;;;;;;;;;;4969885;28;20659;-62
2023/03/29 02:50:52;;;;;;;4.00;3.70;;;;;;;;;;4970185;28;20427;-62
2023/03/29 02:53:33;;;;;;;6.03;4.45;;;;;;;;;;4970994;28;20038;-62
2023/03/29 02:56:01;;;;;;;3.92;3.63;;;;;;;;;;4970300;28;20042;-62
2023/03/29 02:58:27;;;;;;;4.47;4.13;;;;;;;;;;4986411;28;20495;-61
2023/03/29 03:00:55;;;;;;;4.88;4.00;;;;;;;;;;4968749;28;20059;-61
2023/03/29 03:03:21;;;;;;;4.85;4.30;;;;;;;;;;4970246;28;20046;-62
2023/03/29 03:05:51;;;;;;;5.07;4.60;;;;;;;;;;4970024;28;20034;-62
2023/03/29 03:08:17;;;;;;;7.07;4.28;;;;;;;;;;4984344;28;20101;-62
2023/03/29 03:10:44;;;;;;;6.18;4.72;;;;;;;;;;4968019;28;20550;-62
2023/03/29 03:13:11;;;;;;;4.90;4.40;;;;;;;;;;4970410;28;20043;-62
2023/03/29 03:15:39;;;;;;;4.55;4.15;;;;;;;;;;4969445;28;20686;-62
2023/03/29 03:18:05;;;;;;;4.30;4.00;;;;;;;;;;4969315;28;20038;-63
2023/03/29 03:20:32;;;;;;;5.95;4.68;;;;;;;;;;4968030;28;20049;-62
2023/03/29 03:22:57;;;;;;;4.93;4.43;;;;;;;;;;4985717;28;20049;-62
2023/03/29 03:25:24;;;;;;;4.57;4.18;;;;;;;;;;4969915;28;20042;-61
2023/03/29 03:27:49;;;;;;;7.07;4.80;;;;;;;;;;4968331;28;20051;-62
2023/03/29 03:30:17;;;;;;;4.53;4.13;;;;;;;;;;4973364;28;20537;-62
2023/03/29 03:33:06;;;;;;;5.97;4.15;;;;;;;;;;4966199;28;20815;-63
2023/03/29 03:36:01;;;;;;;4.78;4.38;;;;;;;;;;4971134;28;20097;-62
2023/03/29 03:38:28;;;;;;;4.32;3.92;;;;;;;;;;4968498;28;20046;-62
2023/03/29 03:40:57;;;;;;;5.55;4.60;;;;;;;;;;4967939;28;20070;-61
2023/03/29 03:43:24;;;;;;;6.15;4.68;;;;;;;;;;4967909;28;20042;-61
2023/03/29 03:45:50;;;;;;;5.18;4.40;;;;;;;;;;4970210;28;20073;-60
2023/03/29 03:48:19;;;;;;;;;;;;;;;;;;4967257;28;20522;-63
2023/03/29 03:50:56;;;;;;;4.50;4.10;;;;;;;;;;4984004;28;20294;-63
2023/03/29 03:53:25;;;;;;;5.30;4.18;;;;;;;;;;4968778;28;20109;-63
2023/03/29 03:56:28;;;;;;;4.45;4.05;;;;;;;;;;4949115;28;20035;-62
2023/03/29 03:59:14;;;;;;;4.53;4.18;;;;;;;;;;4946781;28;20051;-63
2023/03/29 04:01:54;;;;;;;4.82;4.28;;;;;;;;;;4944604;28;20106;-63
2023/03/29 04:04:22;;;;;;;4.32;3.90;;;;;;;;;;4949718;28;20119;-63
2023/03/29 04:07:05;;;;;;;5.05;4.25;;;;;;;;;;4929770;29;20599;-63
2023/03/29 04:09:38;;;;;;;5.15;4.65;;;;;;;;;;4934446;28;20130;-63
2023/03/29 04:12:24;;;;;;;3.88;3.58;;;;;;;;;;4931782;29;20886;-62
2023/03/29 04:14:50;;;;;;;5.28;3.90;;;;;;;;;;4947317;28;20063;-61
2023/03/29 04:17:20;;;;;;;5.82;3.92;;;;;;;;;;4949733;28;20058;-63
2023/03/29 04:19:49;;;;;;;3.88;3.58;;;;;;;;;;4932038;29;20078;-63
2023/03/29 04:22:16;;;;;;;4.13;3.83;;;;;;;;;;4947737;28;20522;-64
2023/03/29 04:24:42;;;;;;;4.07;3.78;;;;;;;;;;4947074;28;20035;-63
2023/03/29 04:27:31;;;;;;;4.93;3.70;;;;;;;;;;4942836;28;20046;-62
2023/03/29 04:29:59;;;;;;;4.80;3.60;;;;;;;;;;4963277;28;20045;-62
2023/03/29 04:32:45;;;;;;;4.18;3.78;;;;;;;;;;4969414;28;20030;-62
2023/03/29 04:35:10;;;;;;;5.32;4.00;;;;;;;;;;4965279;28;20038;-62
2023/03/29 04:37:39;;;;;;;5.10;4.03;;;;;;;;;;4968217;28;20035;-62
2023/03/29 04:40:08;;;;;;;4.18;3.67;;;;;;;;;;4965335;28;20034;-62
2023/03/29 04:42:46;;;;;;;4.30;4.00;;;;;;;;;;4982326;28;20042;-62
2023/03/29 04:45:17;;;;;;;4.07;3.75;;;;;;;;;;4969076;28;20849;-62
2023/03/29 04:48:01;;;;;;;4.10;3.70;;;;;;;;;;4970403;28;20039;-61
2023/03/29 04:50:27;;;;;;;5.50;3.85;;;;;;;;;;4966305;28;20403;-62
2023/03/29 04:52:53;;;;;;;5.35;3.90;;;;;;;;;;4967682;28;20122;-62
2023/03/29 04:55:19;;;;;;;4.22;3.88;;;;;;;;;;4967579;28;20053;-63
2023/03/29 04:57:57;;;;;;;4.88;4.15;;;;;;;;;;4965710;28;20073;-64
2023/03/29 05:00:30;;;;;;;5.43;4.30;;;;;;;;;;4967301;28;20134;-65
2023/03/29 05:02:58;;;;;;;5.80;4.40;;;;;;;;;;4970631;28;20027;-64
2023/03/29 05:05:25;;;;;;;4.43;4.05;;;;;;;;;;4967643;28;20068;-65
2023/03/29 05:07:52;;;;;;;4.65;4.05;;;;;;;;;;4966562;28;20037;-63
2023/03/29 05:10:23;;;;;;;4.82;4.43;;;;;;;;;;4966591;28;20043;-64
2023/03/29 05:12:52;;;;;;;4.40;4.07;;;;;;;;;;4967666;28;20124;-63
2023/03/29 05:15:20;;;;;;;4.80;4.40;;;;;;;;;;4965570;28;20068;-63
2023/03/29 05:17:47;;;;;;;5.25;4.75;;;;;;;;;;4968120;28;20126;-61
2023/03/29 05:20:14;;;;;;;6.25;5.60;;;;;;;;;;4966908;28;20046;-63
2023/03/29 05:22:42;;;;;;;4.80;4.40;;;;;;;;;;4967192;28;20074;-63
2023/03/29 05:25:17;;;;;;;5.57;4.47;;;;;;;;;;4964707;28;20073;-63
2023/03/29 05:27:44;;;;;;;4.47;4.07;;;;;;;;;;4967675;28;20038;-63
2023/03/29 05:30:14;;;;;;;4.43;4.07;;;;;;;;;;4967802;28;20049;-63
2023/03/29 05:32:56;;;;;;;8.07;5.07;;;;;;;;;;4966936;28;20101;-62
2023/03/29 05:35:25;;;;;;;5.70;4.40;;;;;;;;;;4983509;28;20062;-63
2023/03/29 05:37:51;;;;;;;4.53;4.20;;;;;;;;;;4966872;28;20042;-63
2023/03/29 05:40:17;;;;;;;5.25;3.80;;;;;;;;;;4967698;28;20026;-64
2023/03/29 05:43:02;;;;;;;8.35;4.70;;;;;;;;;;4966527;28;20121;-63
2023/03/29 05:45:28;;;;;;;6.25;4.00;;;;;;;;;;4951343;28;20177;-63
2023/03/29 05:47:56;;;;;;;4.72;4.32;;;;;;;;;;4967732;28;20482;-63
2023/03/29 05:50:22;;;;;;;4.43;4.03;;;;;;;;;;4964710;28;20045;-63
2023/03/29 05:52:48;;;;;;;4.30;4.00;;;;;;;;;;4966909;28;20038;-63
2023/03/29 05:55:14;;;;;;;5.05;4.00;;;;;;;;;;4966759;28;20476;-64
2023/03/29 05:57:40;;;;;;;4.78;4.28;;;;;;;;;;4967146;28;20050;-64
2023/03/29 06:00:16;;;;;;;4.20;3.88;;;;;;;;;;4966629;28;20483;-64
2023/03/29 06:02:42;;;;;;;8.70;4.53;;;;;;;;;;4966533;28;20035;-64
2023/03/29 06:05:08;;;;;;;6.28;4.25;;;;;;;;;;4966787;28;20042;-64
2023/03/29 06:07:48;;;;;;;4.32;3.95;;;;;;;;;;4964932;28;20038;-64
2023/03/29 06:10:47;;;;;;;3.70;3.40;;;;;;;;;;4966383;28;20077;-63
2023/03/29 06:13:33;;;;;;;4.30;4.00;;;;;;;;;;4963637;28;20050;-63
2023/03/29 06:16:00;;;;;;;5.15;4.60;;;;;;;;;;4964307;28;20038;-64
2023/03/29 06:18:27;;;;;;;14.90;7.65;;;;;;;;;;4966138;28;20039;-64
2023/03/29 06:20:52;;;;;;;101.63;41.13;;;;;;;;;;4967817;28;20313;-63
2023/03/29 06:23:19;;;;;;;247.85;102.20;;;;;;;;;;4970350;28;20050;-63
2023/03/29 06:25:45;;;;;;;35.92;17.52;;;;;;;;;;4970498;28;20436;-63
2023/03/29 06:28:13;;;;;;;4.70;4.40;;;;;;;;;;4970087;28;20478;-64
2023/03/29 06:30:40;;;;;;;4.93;4.22;;;;;;;;;;4970279;28;20038;-62
2023/03/29 06:33:07;;;;;;;5.32;4.90;;;;;;;;;;4970636;28;20045;-63
2023/03/29 06:35:48;;;;;;;6.97;4.95;;;;;;;;;;4985742;28;20038;-63
2023/03/29 06:38:20;;;;;;;9.63;7.50;;;;;;;;;;4969985;28;20041;-64
2023/03/29 06:40:51;;;;;;;5.07;4.50;;;;;;;;;;4971785;28;20034;-64
2023/03/29 06:43:20;;;;;;;4.43;4.03;;;;;;;;;;4969110;28;20043;-64
2023/03/29 06:45:53;;;;;;;4.50;4.10;;;;;;;;;;4970011;28;20034;-64
2023/03/29 06:48:32;;;;;;;8.05;4.07;;;;;;;;;;4985772;28;20038;-64
2023/03/29 06:50:58;;;;;;;6.50;4.28;;;;;;;;;;4969741;28;20517;-63
2023/03/29 06:53:27;;;;;;;5.30;4.20;;;;;;;;;;4985264;28;20054;-64
2023/03/29 06:55:58;;;;;;;4.13;3.80;;;;;;;;;;4969802;28;20039;-64
2023/03/29 06:58:46;;;;;;;5.18;4.03;;;;;;;;;;4985739;28;20034;-63
2023/03/29 07:01:33;;;;;;;6.57;3.95;;;;;;;;;;4967199;28;20043;-62
2023/03/29 07:04:08;;;;;;;4.43;4.03;;;;;;;;;;4969834;28;20038;-63
2023/03/29 07:07:00;;;;;;;5.47;3.92;;;;;;;;;;4969692;28;20062;-64
2023/03/29 07:09:28;;;;;;;4.50;4.10;;;;;;;;;;4967193;28;20042;-63
2023/03/29 07:12:13;;;;;;;4.03;3.72;;;;;;;;;;4971070;28;20872;-64
2023/03/29 07:14:38;;;;;;;5.05;3.75;;;;;;;;;;4969582;28;20030;-64
2023/03/29 07:17:05;;;;;;;4.38;3.97;;;;;;;;;;4968476;28;20093;-64
2023/03/29 07:19:32;;;;;;;3.92;3.58;;;;;;;;;;4969951;28;20042;-63
2023/03/29 07:22:17;;;;;;;4.40;4.10;;;;;;;;;;4970341;28;20097;-63
2023/03/29 07:24:51;;;;;;;4.65;4.35;;;;;;;;;;4969295;28;20039;-64
2023/03/29 07:27:16;;;;;;;4.45;3.90;;;;;;;;;;4967952;28;20043;-64
2023/03/29 07:29:48;;;;;;;4.20;3.90;;;;;;;;;;4968817;28;20469;-62
2023/03/29 07:32:13;;;;;;;4.20;3.90;;;;;;;;;;4970016;28;20419;-63
2023/03/29 07:34:42;;;;;;;4.20;3.90;;;;;;;;;;4969567;28;20038;-63
2023/03/29 07:37:13;;;;;;;4.95;3.90;;;;;;;;;;4967428;28;20045;-64
2023/03/29 07:39:41;;;;;;;7.25;4.20;;;;;;;;;;4968881;28;20066;-64
2023/03/29 07:42:26;;;;;;;4.88;4.55;;;;;;;;;;4968410;28;20298;-64
2023/03/29 07:44:53;;;;;;;8.35;4.68;;;;;;;;;;4968582;28;20061;-61
2023/03/29 07:47:19;;;;;;;5.03;4.00;;;;;;;;;;4968861;28;20047;-62
2023/03/29 07:49:45;;;;;;;5.97;3.88;;;;;;;;;;4983421;28;20411;-64
2023/03/29 07:52:10;;;;;;;7.75;4.18;;;;;;;;;;4967911;28;20038;-64
2023/03/29 07:54:37;;;;;;;5.28;3.90;;;;;;;;;;4968800;28;20399;-64
2023/03/29 07:57:28;;;;;;;4.18;3.78;;;;;;;;;;4966705;28;20054;-64
2023/03/29 07:59:57;;;;;;;4.20;3.90;;;;;;;;;;4968312;28;20031;-63
2023/03/29 08:02:26;;;;;;;4.15;3.80;;;;;;;;;;4966911;28;20130;-65
2023/03/29 08:04:56;;;;;;;7.82;3.75;;;;;;;;;;4969049;28;20046;-64
2023/03/29 08:07:42;;;;;;;6.15;4.00;;;;;;;;;;4969804;28;20041;-64
2023/03/29 08:10:16;;;;;;;4.40;4.00;;;;;;;;;;4968431;28;20569;-63
2023/03/29 08:12:57;;;;;;;4.40;4.00;;;;;;;;;;4965795;28;20090;-64
2023/03/29 08:15:38;;;;;;;6.32;3.88;;;;;;;;;;4967956;28;20051;-64
2023/03/29 08:18:14;;;;;;;4.00;3.70;;;;;;;;;;4966268;28;20114;-64
2023/03/29 08:20:41;;;;;;;7.30;4.05;;;;;;;;;;4970345;28;20137;-63
2023/03/29 08:23:10;;;;;;;4.43;4.03;;;;;;;;;;4968371;28;20121;-64
2023/03/29 08:25:56;;;;;;;4.78;4.28;;;;;;;;;;4968418;28;20039;-64
2023/03/29 08:28:22;;;;;;;5.03;4.50;;;;;;;;;;4967844;28;20046;-64
2023/03/29 08:30:50;;;;;;;7.83;4.30;;;;;;;;;;4968461;28;20593;-64
2023/03/29 08:33:15;;;;;;;5.00;4.50;;;;;;;;;;4968377;28;20063;-65
2023/03/29 08:35:42;;;;;;;6.97;4.80;;;;;;;;;;4967781;28;20121;-64
2023/03/29 08:38:15;;;;;;;6.63;4.85;;;;;;;;;;4968256;28;20093;-64
2023/03/29 08:40:41;;;;;;;4.68;4.28;;;;;;;;;;4968378;28;20038;-65
2023/03/29 08:43:33;;;;;;;6.68;5.10;;;;;;;;;;4966829;28;20250;-64
2023/03/29 08:46:47;;;;;;;4.60;4.20;;;;;;;;;;4983275;28;20138;-64
2023/03/29 08:49:25;;;;;;;5.50;4.15;;;;;;;;;;4966243;28;20494;-64
2023/03/29 08:51:57;;;;;;;4.47;4.07;;;;;;;;;;4966877;28;20050;-64
2023/03/29 08:54:26;;;;;;;4.95;4.55;;;;;;;;;;4982286;28;20070;-62
2023/03/29 08:57:21;;;;;;;5.40;4.20;;;;;;;;;;4969100;28;20042;-62
2023/03/29 08:59:54;;;;;;;4.90;4.40;;;;;;;;;;4982792;28;20399;-62
2023/03/29 09:02:27;;;;;;;10.77;6.05;;;;;;;;;;4966316;28;20031;-65
2023/03/29 09:05:21;;;;;;;6.13;4.47;;;;;;;;;;4967737;28;20041;-63
2023/03/29 09:07:56;;;;;;;6.20;4.78;;;;;;;;;;4983039;28;20537;-64
2023/03/29 09:10:38;;;;;;;5.68;5.07;;;;;;;;;;4965258;28;20039;-64
2023/03/29 09:13:32;;;;;;;4.78;4.07;;;;;;;;;;4965283;28;20042;-64
2023/03/29 09:16:11;;;;;;;6.53;4.13;;;;;;;;;;4983184;28;20039;-64
2023/03/29 09:18:54;;;;;;;8.07;4.20;;;;;;;;;;4964007;28;20034;-64
2023/03/29 09:21:38;;;;;;;7.13;4.70;;;;;;;;;;4965282;28;20146;-64
2023/03/29 09:24:25;;;;;;;4.00;3.70;;;;;;;;;;4966642;28;20399;-64
2023/03/29 09:27:01;;;;;;;4.13;3.75;;;;;;;;;;4981778;28;20125;-63
2023/03/29 09:29:51;;;;;;;9.43;4.85;;;;;;;;;;4966108;28;20069;-64
2023/03/29 09:32:30;;;;;;;5.63;4.50;;;;;;;;;;4965028;28;20042;-64
2023/03/29 09:35:10;;;;;;;9.88;7.10;;;;;;;;;;4960780;28;20503;-65
2023/03/29 09:37:38;;;;;;;5.63;4.60;;;;;;;;;;4968615;28;20042;-64
2023/03/29 09:40:15;;;;;;;4.65;4.00;;;;;;;;;;4966802;28;20117;-65
2023/03/29 09:43:17;;;;;;;6.97;4.30;;;;;;;;;;4972279;28;20491;-62
2023/03/29 09:45:49;;;;;;;6.65;3.95;;;;;;;;;;4967247;28;20145;-65
2023/03/29 09:48:18;;;;;;;4.45;4.03;;;;;;;;;;4966830;28;20501;-64
2023/03/29 09:50:50;;;;;;;6.65;4.07;;;;;;;;;;4948940;28;20031;-64
2023/03/29 09:53:19;;;;;;;4.95;4.30;;;;;;;;;;4966871;28;20118;-65
2023/03/29 09:55:54;;;;;;;5.20;4.63;;;;;;;;;;4966283;28;20030;-65
2023/03/29 09:58:45;;;;;;;5.30;4.30;;;;;;;;;;4967777;28;20027;-65
2023/03/29 10:01:14;;;;;;;4.38;3.83;;;;;;;;;;4964087;28;20495;-64
2023/03/29 10:03:41;;;;;;;;;;;;;;;;;;4967032;28;20042;-65
2023/03/29 10:06:13;;;;;;;5.35;4.18;;;;;;;;;;4966868;28;19973;-65
2023/03/29 10:08:53;;;;;;;4.75;4.30;;;;;;;;;;4964463;28;20035;-64
2023/03/29 10:11:27;;;;;;;4.32;3.92;;;;;;;;;;4966611;28;20601;-64
2023/03/29 10:13:55;;;;;;;4.60;4.20;;;;;;;;;;4968243;28;20166;-65
2023/03/29 10:16:24;;;;;;;4.45;4.05;;;;;;;;;;4964629;28;20047;-65
2023/03/29 10:18:50;;;;;;;3.95;3.65;;;;;;;;;;4967652;28;20169;-64
2023/03/29 10:21:22;;;;;;;3.80;3.50;;;;;;;;;;4967206;28;20038;-65
2023/03/29 10:23:55;;;;;;;5.03;3.75;;;;;;;;;;4967153;28;20031;-65
2023/03/29 10:26:28;;;;;;;5.97;4.40;;;;;;;;;;4968074;28;20666;-64
2023/03/29 10:28:56;;;;;;;4.68;4.03;;;;;;;;;;4967421;28;20066;-65
2023/03/29 10:31:23;;;;;;;4.43;3.65;;;;;;;;;;4966277;28;20042;-65
2023/03/29 10:33:54;;;;;;;4.20;3.90;;;;;;;;;;4968032;28;20031;-65
2023/03/29 10:36:21;;;;;;;5.55;4.63;;;;;;;;;;4967751;28;20123;-65
2023/03/29 10:38:47;;;;;;;5.63;3.92;;;;;;;;;;4967639;28;20653;-64
2023/03/29 10:41:14;;;;;;;4.20;3.90;;;;;;;;;;4966660;28;20110;-64
2023/03/29 10:43:49;;;;;;;6.35;4.68;;;;;;;;;;4967715;28;20411;-64
2023/03/29 10:46:30;;;;;;;5.30;4.30;;;;;;;;;;4967699;28;20038;-64
2023/03/29 10:49:04;;;;;;;4.57;4.18;;;;;;;;;;4966466;28;20057;-65
2023/03/29 10:51:33;;;;;;;4.82;4.30;;;;;;;;;;4967037;28;20138;-65
2023/03/29 10:54:10;;;;;;;5.43;4.47;;;;;;;;;;4967990;28;20105;-65
2023/03/29 10:56:41;;;;;;;8.10;4.35;;;;;;;;;;4965633;28;20092;-65
2023/03/29 10:59:15;;;;;;;4.78;4.38;;;;;;;;;;4967379;28;20221;-65
2023/03/29 11:02:17;;;;;;;12.65;8.68;;;;;;;;;;4967604;28;20073;-65
2023/03/29 11:04:59;;;;;;;7.13;4.72;;;;;;;;;;4964603;28;20519;-64
2023/03/29 11:07:39;;;;;;;4.40;4.00;;;;;;;;;;4967355;28;20038;-64
2023/03/29 11:10:27;;;;;;;4.55;4.25;;;;;;;;;;4970153;28;20034;-64
2023/03/29 11:13:01;;;;;;;5.78;4.40;;;;;;;;;;4970657;28;20704;-64
2023/03/29 11:15:52;;;;;;;4.63;4.22;;;;;;;;;;4968987;28;20048;-64
2023/03/29 11:18:45;;;;;;;6.47;4.32;;;;;;;;;;4970448;28;20102;-65
2023/03/29 11:21:26;;;;;;;7.45;5.07;;;;;;;;;;4967687;28;20041;-64
2023/03/29 11:24:11;;;;;;;4.65;4.07;;;;;;;;;;4968571;28;20444;-65
2023/03/29 11:27:02;;;;;;;5.22;4.65;;;;;;;;;;4970469;28;20031;-64
2023/03/29 11:29:57;;;;;;;6.18;4.10;;;;;;;;;;4970230;28;20046;-65
2023/03/29 11:32:41;;;;;;;4.50;4.10;;;;;;;;;;4968268;28;20398;-64
2023/03/29 11:35:23;;;;;;;6.53;4.18;;;;;;;;;;4966590;28;20073;-64
2023/03/29 11:38:25;;;;;;;4.65;4.20;;;;;;;;;;4969839;28;20431;-64
2023/03/29 11:41:13;;;;;;;4.20;3.90;;;;;;;;;;4946338;29;20047;-64
2023/03/29 11:43:49;;;;;;;4.13;3.75;;;;;;;;;;4947039;29;20460;-65
2023/03/29 11:46:41;;;;;;;4.18;3.88;;;;;;;;;;4947817;29;20126;-64
2023/03/29 11:49:18;;;;;;;4.47;4.00;;;;;;;;;;4943825;29;20050;-64
2023/03/29 11:52:05;;;;;;;4.47;3.55;;;;;;;;;;4948131;29;20093;-64
2023/03/29 11:54:45;;;;;;;4.40;3.80;;;;;;;;;;4946978;29;20082;-65
2023/03/29 11:57:21;;;;;;;4.03;3.58;;;;;;;;;;4947325;29;20474;-65
2023/03/29 11:59:55;;;;;;;4.40;3.60;;;;;;;;;;4946310;29;20043;-65
2023/03/29 12:02:28;;;;;;;5.15;4.15;;;;;;;;;;4947731;29;20070;-64
2023/03/29 12:04:56;;;;;;;6.95;3.90;;;;;;;;;;4948082;29;20539;-65
2023/03/29 12:07:35;;;;;;;5.23;3.83;;;;;;;;;;4928864;29;20522;-65
2023/03/29 12:10:20;;;;;;;4.32;3.95;;;;;;;;;;4947438;29;20201;-65
2023/03/29 12:12:54;;;;;;;4.82;3.90;;;;;;;;;;4947673;29;20046;-65
2023/03/29 12:15:35;;;;;;;5.05;3.78;;;;;;;;;;4947140;28;20047;-65
2023/03/29 12:18:23;;;;;;;6.38;3.70;;;;;;;;;;4969834;28;20058;-64
2023/03/29 12:20:57;;;;;;;4.00;3.70;;;;;;;;;;4969612;28;20034;-65
2023/03/29 12:23:24;;;;;;;4.97;3.80;;;;;;;;;;4967265;28;20046;-65
2023/03/29 12:26:05;;;;;;;4.15;3.80;;;;;;;;;;4969610;28;20049;-65
2023/03/29 12:28:48;;;;;;;5.15;4.15;;;;;;;;;;4969102;28;20089;-64
2023/03/29 12:31:27;;;;;;;4.57;3.80;;;;;;;;;;4968253;28;20159;-65
2023/03/29 12:34:11;;;;;;;3.92;3.63;;;;;;;;;;4969428;28;20196;-65
2023/03/29 12:37:04;;;;;;;5.68;3.42;;;;;;;;;;4964491;28;20042;-64
2023/03/29 12:39:45;;;;;;;5.97;3.65;;;;;;;;;;4967373;28;20117;-65
2023/03/29 12:42:29;;;;;;;3.70;3.40;;;;;;;;;;4969453;28;20047;-65
2023/03/29 12:44:59;;;;;;;3.90;3.70;;;;;;;;;;4969880;28;20150;-65
2023/03/29 12:47:36;;;;;;;3.85;3.50;;;;;;;;;;4969826;28;20037;-65
2023/03/29 12:50:03;;;;;;;4.32;3.80;;;;;;;;;;4966588;28;20026;-65
2023/03/29 12:52:31;;;;;;;4.07;3.67;;;;;;;;;;4968125;28;20046;-64
2023/03/29 12:55:20;;;;;;;4.00;3.70;;;;;;;;;;4969338;28;20394;-64
2023/03/29 12:58:08;;;;;;;5.13;3.97;;;;;;;;;;4983601;28;20302;-65
2023/03/29 13:00:43;;;;;;;4.40;4.00;;;;;;;;;;4969111;28;20373;-65
2023/03/29 13:03:28;;;;;;;5.40;3.88;;;;;;;;;;4968285;28;20066;-65
2023/03/29 13:06:03;;;;;;;4.57;3.85;;;;;;;;;;4965512;28;20037;-65
2023/03/29 13:08:59;;;;;;;6.03;3.95;;;;;;;;;;4966568;28;20411;-65
2023/03/29 13:11:30;;;;;;;6.18;4.32;;;;;;;;;;4966052;28;20043;-64
2023/03/29 13:13:59;;;;;;;5.22;3.70;;;;;;;;;;4965871;28;20069;-65
2023/03/29 13:16:33;;;;;;;6.15;4.22;;;;;;;;;;4967341;28;20086;-65
2023/03/29 13:19:12;;;;;;;4.13;3.75;;;;;;;;;;4960925;28;20414;-65
2023/03/29 13:21:52;;;;;;;3.72;3.47;;;;;;;;;;4966413;28;20092;-65
2023/03/29 13:24:38;;;;;;;4.43;3.92;;;;;;;;;;4965087;28;20045;-64
2023/03/29 13:27:21;;;;;;;4.18;3.88;;;;;;;;;;4967596;28;20042;-65
2023/03/29 13:30:04;;;;;;;4.28;3.53;;;;;;;;;;4965561;28;20074;-65
2023/03/29 13:32:39;;;;;;;5.43;4.00;;;;;;;;;;4947550;28;20074;-64
2023/03/29 13:35:11;;;;;;;4.47;4.10;;;;;;;;;;4967093;28;20467;-64
2023/03/29 13:38:16;;;;;;;5.38;4.32;;;;;;;;;;4966830;28;20524;-65
2023/03/29 13:40:55;;;;;;;4.10;3.80;;;;;;;;;;4947588;28;20057;-64
2023/03/29 13:43:30;;;;;;;4.32;4.00;;;;;;;;;;4966921;28;20086;-65
2023/03/29 13:45:55;;;;;;;5.45;4.00;;;;;;;;;;4967011;28;20081;-64
2023/03/29 13:48:25;;;;;;;5.13;4.00;;;;;;;;;;4965387;28;20039;-64
2023/03/29 13:51:00;;;;;;;5.28;4.03;;;;;;;;;;4966395;28;20043;-64
2023/03/29 13:53:39;;;;;;;5.25;4.40;;;;;;;;;;4966875;28;20035;-65
2023/03/29 13:56:09;;;;;;;3.95;3.70;;;;;;;;;;4962768;28;20402;-64
2023/03/29 13:58:48;;;;;;;5.22;3.90;;;;;;;;;;4979380;28;20044;-64
2023/03/29 14:01:35;;;;;;;5.72;4.18;;;;;;;;;;4964074;28;20042;-64
2023/03/29 14:04:04;;;;;;;4.78;3.75;;;;;;;;;;4965890;28;20050;-63
2023/03/29 14:06:31;;;;;;;;;;;;;;;;;;4965291;28;20042;-64
2023/03/29 14:09:03;;;;;;;7.75;3.80;;;;;;;;;;4966073;28;19915;-64
2023/03/29 14:11:29;;;;;;;4.35;3.95;;;;;;;;;;4966080;28;20043;-65
2023/03/29 14:13:58;;;;;;;4.68;4.28;;;;;;;;;;4965366;28;20069;-64
2023/03/29 14:16:38;;;;;;;4.40;4.10;;;;;;;;;;4965996;28;20126;-64
2023/03/29 14:19:12;;;;;;;4.85;4.45;;;;;;;;;;4966310;28;20043;-64
2023/03/29 14:21:40;;;;;;;6.32;4.50;;;;;;;;;;4965446;28;20479;-64
2023/03/29 14:24:11;;;;;;;6.03;4.10;;;;;;;;;;4964269;28;20085;-64
2023/03/29 14:26:39;;;;;;;4.80;4.40;;;;;;;;;;4965919;28;20114;-64
2023/03/29 14:29:05;;;;;;;4.45;4.10;;;;;;;;;;4965386;28;20403;-64
2023/03/29 14:31:38;;;;;;;4.50;4.20;;;;;;;;;;4966232;28;20418;-63
2023/03/29 14:34:06;;;;;;;4.63;4.32;;;;;;;;;;4964338;28;20046;-65
2023/03/29 14:36:32;;;;;;;4.80;4.40;;;;;;;;;;4966093;28;20059;-65
2023/03/29 14:39:10;;;;;;;5.47;4.45;;;;;;;;;;4965214;28;20217;-65
2023/03/29 14:41:37;;;;;;;4.60;4.20;;;;;;;;;;4964013;28;20039;-64
2023/03/29 14:44:06;;;;;;;5.30;4.35;;;;;;;;;;4969070;28;20503;-64
2023/03/29 14:46:32;;;;;;;;;;;;;;;;;;4970163;28;20783;-64
2023/03/29 14:48:59;;;;;;;4.85;4.25;;;;;;;;;;4968686;28;19925;-64
2023/03/29 14:51:29;;;;;;;4.57;3.95;;;;;;;;;;4968372;28;20057;-64
2023/03/29 14:53:57;;;;;;;4.70;4.30;;;;;;;;;;4969684;28;20093;-64
2023/03/29 14:56:24;;;;;;;4.53;4.10;;;;;;;;;;4969625;28;20449;-64
2023/03/29 14:58:53;;;;;;;6.32;3.95;;;;;;;;;;4965602;28;20039;-64
2023/03/29 15:01:21;;;;;;;7.30;4.40;;;;;;;;;;4967603;28;20039;-64
2023/03/29 15:04:00;;;;;;;4.65;4.15;;;;;;;;;;4969998;28;20043;-64
2023/03/29 15:06:27;;;;;;;8.43;3.97;;;;;;;;;;4969584;28;20038;-64
2023/03/29 15:08:56;;;;;;;4.65;4.28;;;;;;;;;;4969566;28;20056;-64
2023/03/29 15:11:26;;;;;;;4.40;4.10;;;;;;;;;;4971375;28;20118;-64
2023/03/29 15:14:05;;;;;;;4.75;4.30;;;;;;;;;;4970963;28;20336;-64
2023/03/29 15:16:32;;;;;;;8.65;4.82;;;;;;;;;;4986099;28;20038;-64
2023/03/29 15:19:00;;;;;;;5.25;4.60;;;;;;;;;;4969003;28;20133;-64
2023/03/29 15:21:31;;;;;;;5.97;5.00;;;;;;;;;;4967300;28;20141;-64
2023/03/29 15:23:59;;;;;;;4.65;4.25;;;;;;;;;;4983287;28;20293;-64